sensor_id;sensor_type;location;lat;lon;timestamp;P1;durP1;ratioP1;P2;durP2;ratioP2
11447;SDS011;43755;49.736;8.734;2023-07-08T00:01:28;7.03;;;6.33;;
11447;SDS011;43755;49.736;8.734;2023-07-08T00:03:29;6.97;;;6.00;;
11447;SDS011;43755;49.736;8.734;2023-07-08T00:05:32;7.77;;;6.20;;
11447;SDS011;43755;49.736;8.734;2023-07-08T00:07:33;7.78;;;6.50;;
11447;SDS011;43755;49.736;8.734;2023-07-08T00:09:34;7.00;;;5.90;;
11447;SDS011;43755;49.736;8.734;2023-07-08T00:11:36;6.40;;;5.80;;
11447;SDS011;43755;49.736;8.734;2023-07-08T00:13:37;6.50;;;5.87;;
11447;SDS011;43755;49.736;8.734;2023-07-08T00:15:39;6.53;;;5.90;;
11447;SDS011;43755;49.736;8.734;2023-07-08T00:17:41;6.30;;;5.70;;
11447;SDS011;43755;49.736;8.734;2023-07-08T00:19:43;6.30;;;5.70;;
11447;SDS011;43755;49.736;8.734;2023-07-08T00:21:46;6.97;;;5.93;;
11447;SDS011;43755;49.736;8.734;2023-07-08T00:23:47;7.20;;;5.73;;
11447;SDS011;43755;49.736;8.734;2023-07-08T00:25:50;7.67;;;6.10;;
11447;SDS011;43755;49.736;8.734;2023-07-08T00:27:51;6.00;;;5.50;;
11447;SDS011;43755;49.736;8.734;2023-07-08T00:29:53;6.88;;;6.28;;
11447;SDS011;43755;49.736;8.734;2023-07-08T00:31:53;6.53;;;5.90;;
11447;SDS011;43755;49.736;8.734;2023-07-08T00:33:55;6.50;;;5.90;;
11447;SDS011;43755;49.736;8.734;2023-07-08T00:35:57;6.80;;;5.80;;
11447;SDS011;43755;49.736;8.734;2023-07-08T00:37:59;5.70;;;5.20;;
11447;SDS011;43755;49.736;8.734;2023-07-08T00:40:05;7.00;;;6.30;;
11447;SDS011;43755;49.736;8.734;2023-07-08T00:42:16;6.77;;;6.13;;
11447;SDS011;43755;49.736;8.734;2023-07-08T00:44:19;7.73;;;5.70;;
11447;SDS011;43755;49.736;8.734;2023-07-08T00:48:42;7.07;;;6.38;;
11447;SDS011;43755;49.736;8.734;2023-07-08T00:50:46;6.23;;;5.63;;
11447;SDS011;43755;49.736;8.734;2023-07-08T00:52:48;6.45;;;5.85;;
11447;SDS011;43755;49.736;8.734;2023-07-08T00:54:51;6.03;;;5.53;;
11447;SDS011;43755;49.736;8.734;2023-07-08T00:56:54;6.90;;;5.40;;
11447;SDS011;43755;49.736;8.734;2023-07-08T00:58:59;6.55;;;5.95;;
11447;SDS011;43755;49.736;8.734;2023-07-08T01:01:03;6.80;;;6.07;;
11447;SDS011;43755;49.736;8.734;2023-07-08T01:03:06;6.80;;;5.95;;
11447;SDS011;43755;49.736;8.734;2023-07-08T01:05:08;6.38;;;5.78;;
11447;SDS011;43755;49.736;8.734;2023-07-08T01:07:13;6.33;;;5.73;;
11447;SDS011;43755;49.736;8.734;2023-07-08T01:09:21;5.60;;;5.10;;
11447;SDS011;43755;49.736;8.734;2023-07-08T01:11:24;6.63;;;5.93;;
11447;SDS011;43755;49.736;8.734;2023-07-08T01:13:25;6.60;;;6.00;;
11447;SDS011;43755;49.736;8.734;2023-07-08T01:15:27;6.80;;;6.20;;
11447;SDS011;43755;49.736;8.734;2023-07-08T01:17:32;6.50;;;5.80;;
11447;SDS011;43755;49.736;8.734;2023-07-08T01:19:34;6.53;;;5.63;;
11447;SDS011;43755;49.736;8.734;2023-07-08T01:21:38;6.30;;;5.60;;
11447;SDS011;43755;49.736;8.734;2023-07-08T01:23:45;6.33;;;5.73;;
11447;SDS011;43755;49.736;8.734;2023-07-08T01:25:47;6.53;;;5.82;;
11447;SDS011;43755;49.736;8.734;2023-07-08T01:27:49;6.33;;;5.70;;
11447;SDS011;43755;49.736;8.734;2023-07-08T01:29:54;6.47;;;5.87;;
11447;SDS011;43755;49.736;8.734;2023-07-08T01:31:55;6.32;;;5.72;;
11447;SDS011;43755;49.736;8.734;2023-07-08T01:33:57;6.20;;;5.70;;
11447;SDS011;43755;49.736;8.734;2023-07-08T01:35:58;6.07;;;5.57;;
11447;SDS011;43755;49.736;8.734;2023-07-08T01:38:01;6.13;;;5.53;;
11447;SDS011;43755;49.736;8.734;2023-07-08T01:40:15;6.70;;;5.20;;
11447;SDS011;43755;49.736;8.734;2023-07-08T01:42:18;6.33;;;5.50;;
11447;SDS011;43755;49.736;8.734;2023-07-08T01:44:23;5.40;;;4.90;;
11447;SDS011;43755;49.736;8.734;2023-07-08T01:46:28;9.13;;;5.20;;
11447;SDS011;43755;49.736;8.734;2023-07-08T01:48:33;6.63;;;5.50;;
11447;SDS011;43755;49.736;8.734;2023-07-08T01:50:37;7.07;;;6.03;;
11447;SDS011;43755;49.736;8.734;2023-07-08T01:52:41;6.30;;;5.70;;
11447;SDS011;43755;49.736;8.734;2023-07-08T01:54:44;5.80;;;5.27;;
11447;SDS011;43755;49.736;8.734;2023-07-08T01:56:45;5.83;;;5.23;;
11447;SDS011;43755;49.736;8.734;2023-07-08T01:58:46;6.10;;;5.50;;
11447;SDS011;43755;49.736;8.734;2023-07-08T02:00:48;6.63;;;6.00;;
11447;SDS011;43755;49.736;8.734;2023-07-08T02:02:49;6.83;;;6.03;;
11447;SDS011;43755;49.736;8.734;2023-07-08T02:04:51;6.97;;;6.28;;
11447;SDS011;43755;49.736;8.734;2023-07-08T02:06:53;6.40;;;5.80;;
11447;SDS011;43755;49.736;8.734;2023-07-08T02:08:55;6.37;;;5.77;;
11447;SDS011;43755;49.736;8.734;2023-07-08T02:11:00;6.20;;;5.70;;
11447;SDS011;43755;49.736;8.734;2023-07-08T02:13:01;6.13;;;5.53;;
11447;SDS011;43755;49.736;8.734;2023-07-08T02:15:02;6.27;;;5.50;;
11447;SDS011;43755;49.736;8.734;2023-07-08T02:17:04;5.60;;;5.13;;
11447;SDS011;43755;49.736;8.734;2023-07-08T02:19:06;6.20;;;5.60;;
11447;SDS011;43755;49.736;8.734;2023-07-08T02:21:07;6.63;;;5.63;;
11447;SDS011;43755;49.736;8.734;2023-07-08T02:23:09;5.80;;;5.30;;
11447;SDS011;43755;49.736;8.734;2023-07-08T02:25:10;6.47;;;5.73;;
11447;SDS011;43755;49.736;8.734;2023-07-08T02:27:13;5.77;;;5.00;;
11447;SDS011;43755;49.736;8.734;2023-07-08T02:29:13;6.10;;;5.60;;
11447;SDS011;43755;49.736;8.734;2023-07-08T02:31:15;6.40;;;5.57;;
11447;SDS011;43755;49.736;8.734;2023-07-08T02:33:16;5.97;;;5.40;;
11447;SDS011;43755;49.736;8.734;2023-07-08T02:35:18;6.60;;;6.00;;
11447;SDS011;43755;49.736;8.734;2023-07-08T02:37:19;6.22;;;5.63;;
11447;SDS011;43755;49.736;8.734;2023-07-08T02:39:20;8.77;;;5.93;;
11447;SDS011;43755;49.736;8.734;2023-07-08T02:41:21;6.03;;;5.47;;
11447;SDS011;43755;49.736;8.734;2023-07-08T02:43:24;6.50;;;5.90;;
11447;SDS011;43755;49.736;8.734;2023-07-08T02:45:25;7.87;;;5.77;;
11447;SDS011;43755;49.736;8.734;2023-07-08T02:47:26;5.83;;;5.33;;
11447;SDS011;43755;49.736;8.734;2023-07-08T02:49:28;7.33;;;5.90;;
11447;SDS011;43755;49.736;8.734;2023-07-08T02:51:30;6.90;;;5.90;;
11447;SDS011;43755;49.736;8.734;2023-07-08T02:53:32;6.43;;;5.87;;
11447;SDS011;43755;49.736;8.734;2023-07-08T02:55:33;8.10;;;5.70;;
11447;SDS011;43755;49.736;8.734;2023-07-08T02:57:35;6.50;;;5.90;;
11447;SDS011;43755;49.736;8.734;2023-07-08T02:59:37;7.33;;;5.60;;
11447;SDS011;43755;49.736;8.734;2023-07-08T03:01:39;5.83;;;5.20;;
11447;SDS011;43755;49.736;8.734;2023-07-08T03:03:42;7.40;;;5.70;;
11447;SDS011;43755;49.736;8.734;2023-07-08T03:05:43;6.73;;;5.30;;
11447;SDS011;43755;49.736;8.734;2023-07-08T03:07:45;6.23;;;5.60;;
11447;SDS011;43755;49.736;8.734;2023-07-08T03:09:46;7.83;;;5.97;;
11447;SDS011;43755;49.736;8.734;2023-07-08T03:11:47;7.13;;;5.17;;
11447;SDS011;43755;49.736;8.734;2023-07-08T03:13:49;6.00;;;5.50;;
11447;SDS011;43755;49.736;8.734;2023-07-08T03:15:50;6.00;;;5.50;;
11447;SDS011;43755;49.736;8.734;2023-07-08T03:17:52;6.10;;;5.50;;
11447;SDS011;43755;49.736;8.734;2023-07-08T03:19:57;6.23;;;5.63;;
11447;SDS011;43755;49.736;8.734;2023-07-08T03:21:58;5.50;;;5.00;;
11447;SDS011;43755;49.736;8.734;2023-07-08T03:24:03;5.60;;;5.10;;
11447;SDS011;43755;49.736;8.734;2023-07-08T03:26:04;6.00;;;5.27;;
11447;SDS011;43755;49.736;8.734;2023-07-08T03:28:06;6.87;;;5.67;;
11447;SDS011;43755;49.736;8.734;2023-07-08T03:30:14;6.00;;;5.50;;
11447;SDS011;43755;49.736;8.734;2023-07-08T03:32:16;6.00;;;5.40;;
11447;SDS011;43755;49.736;8.734;2023-07-08T03:34:18;6.43;;;5.83;;
11447;SDS011;43755;49.736;8.734;2023-07-08T03:36:19;6.60;;;6.00;;
11447;SDS011;43755;49.736;8.734;2023-07-08T03:38:23;6.20;;;5.60;;
11447;SDS011;43755;49.736;8.734;2023-07-08T03:40:25;5.93;;;5.07;;
11447;SDS011;43755;49.736;8.734;2023-07-08T03:42:26;6.20;;;5.47;;
11447;SDS011;43755;49.736;8.734;2023-07-08T03:44:28;5.83;;;5.27;;
11447;SDS011;43755;49.736;8.734;2023-07-08T03:46:28;6.70;;;5.47;;
11447;SDS011;43755;49.736;8.734;2023-07-08T03:48:31;6.17;;;5.57;;
11447;SDS011;43755;49.736;8.734;2023-07-08T03:50:32;6.20;;;5.60;;
11447;SDS011;43755;49.736;8.734;2023-07-08T03:52:34;5.80;;;5.27;;
11447;SDS011;43755;49.736;8.734;2023-07-08T03:54:34;6.20;;;5.60;;
11447;SDS011;43755;49.736;8.734;2023-07-08T03:56:36;6.47;;;5.33;;
11447;SDS011;43755;49.736;8.734;2023-07-08T03:58:36;5.60;;;5.10;;
11447;SDS011;43755;49.736;8.734;2023-07-08T04:00:37;6.97;;;5.87;;
11447;SDS011;43755;49.736;8.734;2023-07-08T04:02:39;6.43;;;5.83;;
11447;SDS011;43755;49.736;8.734;2023-07-08T04:04:43;6.83;;;5.33;;
11447;SDS011;43755;49.736;8.734;2023-07-08T04:06:44;6.50;;;5.53;;
11447;SDS011;43755;49.736;8.734;2023-07-08T04:08:46;6.50;;;5.77;;
11447;SDS011;43755;49.736;8.734;2023-07-08T04:10:47;5.80;;;5.30;;
11447;SDS011;43755;49.736;8.734;2023-07-08T04:12:49;5.77;;;5.10;;
11447;SDS011;43755;49.736;8.734;2023-07-08T04:14:50;6.07;;;5.47;;
11447;SDS011;43755;49.736;8.734;2023-07-08T04:16:52;5.50;;;5.00;;
11447;SDS011;43755;49.736;8.734;2023-07-08T04:18:57;6.50;;;4.97;;
11447;SDS011;43755;49.736;8.734;2023-07-08T04:20:58;5.67;;;5.17;;
11447;SDS011;43755;49.736;8.734;2023-07-08T04:23:00;6.17;;;5.30;;
11447;SDS011;43755;49.736;8.734;2023-07-08T04:25:01;6.13;;;5.30;;
11447;SDS011;43755;49.736;8.734;2023-07-08T04:27:04;6.27;;;5.30;;
11447;SDS011;43755;49.736;8.734;2023-07-08T04:29:07;5.37;;;4.87;;
11447;SDS011;43755;49.736;8.734;2023-07-08T04:31:11;5.83;;;5.00;;
11447;SDS011;43755;49.736;8.734;2023-07-08T04:33:13;6.00;;;5.40;;
11447;SDS011;43755;49.736;8.734;2023-07-08T04:35:16;6.43;;;5.33;;
11447;SDS011;43755;49.736;8.734;2023-07-08T04:37:19;6.67;;;5.60;;
11447;SDS011;43755;49.736;8.734;2023-07-08T04:39:20;5.80;;;5.20;;
11447;SDS011;43755;49.736;8.734;2023-07-08T04:41:22;6.23;;;5.57;;
11447;SDS011;43755;49.736;8.734;2023-07-08T04:43:23;5.90;;;5.40;;
11447;SDS011;43755;49.736;8.734;2023-07-08T04:45:29;7.10;;;5.67;;
11447;SDS011;43755;49.736;8.734;2023-07-08T04:47:31;6.93;;;5.20;;
11447;SDS011;43755;49.736;8.734;2023-07-08T04:49:34;7.90;;;5.80;;
11447;SDS011;43755;49.736;8.734;2023-07-08T04:51:36;5.87;;;5.07;;
11447;SDS011;43755;49.736;8.734;2023-07-08T04:53:39;6.00;;;5.50;;
11447;SDS011;43755;49.736;8.734;2023-07-08T04:55:41;5.87;;;5.27;;
11447;SDS011;43755;49.736;8.734;2023-07-08T04:57:45;5.77;;;5.20;;
11447;SDS011;43755;49.736;8.734;2023-07-08T04:59:47;6.83;;;5.60;;
11447;SDS011;43755;49.736;8.734;2023-07-08T05:01:48;6.10;;;5.60;;
11447;SDS011;43755;49.736;8.734;2023-07-08T05:03:49;5.90;;;5.40;;
11447;SDS011;43755;49.736;8.734;2023-07-08T05:05:51;6.30;;;5.70;;
11447;SDS011;43755;49.736;8.734;2023-07-08T05:07:52;5.97;;;5.47;;
11447;SDS011;43755;49.736;8.734;2023-07-08T05:09:55;5.80;;;5.20;;
11447;SDS011;43755;49.736;8.734;2023-07-08T05:11:56;5.77;;;5.27;;
11447;SDS011;43755;49.736;8.734;2023-07-08T05:13:58;6.13;;;5.60;;
11447;SDS011;43755;49.736;8.734;2023-07-08T05:15:59;5.70;;;5.20;;
11447;SDS011;43755;49.736;8.734;2023-07-08T05:18:00;6.10;;;5.60;;
11447;SDS011;43755;49.736;8.734;2023-07-08T05:20:02;5.30;;;4.80;;
11447;SDS011;43755;49.736;8.734;2023-07-08T05:22:04;7.63;;;5.63;;
11447;SDS011;43755;49.736;8.734;2023-07-08T05:24:06;6.10;;;5.60;;
11447;SDS011;43755;49.736;8.734;2023-07-08T05:26:09;5.87;;;5.37;;
11447;SDS011;43755;49.736;8.734;2023-07-08T05:28:10;6.10;;;5.60;;
11447;SDS011;43755;49.736;8.734;2023-07-08T05:30:13;6.23;;;5.30;;
11447;SDS011;43755;49.736;8.734;2023-07-08T05:32:16;6.53;;;5.93;;
11447;SDS011;43755;49.736;8.734;2023-07-08T05:34:18;5.93;;;5.33;;
11447;SDS011;43755;49.736;8.734;2023-07-08T05:36:19;6.20;;;5.20;;
11447;SDS011;43755;49.736;8.734;2023-07-08T05:38:21;6.40;;;5.40;;
11447;SDS011;43755;49.736;8.734;2023-07-08T05:40:21;6.10;;;5.50;;
11447;SDS011;43755;49.736;8.734;2023-07-08T05:42:24;6.13;;;5.53;;
11447;SDS011;43755;49.736;8.734;2023-07-08T05:44:25;5.83;;;5.23;;
11447;SDS011;43755;49.736;8.734;2023-07-08T05:46:27;5.97;;;5.47;;
11447;SDS011;43755;49.736;8.734;2023-07-08T05:48:28;5.97;;;5.47;;
11447;SDS011;43755;49.736;8.734;2023-07-08T05:50:30;6.47;;;5.33;;
11447;SDS011;43755;49.736;8.734;2023-07-08T05:52:31;6.23;;;5.63;;
11447;SDS011;43755;49.736;8.734;2023-07-08T05:54:32;6.67;;;5.97;;
11447;SDS011;43755;49.736;8.734;2023-07-08T05:56:34;6.10;;;5.60;;
11447;SDS011;43755;49.736;8.734;2023-07-08T05:58:37;6.47;;;5.80;;
11447;SDS011;43755;49.736;8.734;2023-07-08T06:00:38;6.00;;;5.40;;
11447;SDS011;43755;49.736;8.734;2023-07-08T06:02:39;6.03;;;5.50;;
11447;SDS011;43755;49.736;8.734;2023-07-08T06:04:41;5.77;;;5.27;;
11447;SDS011;43755;49.736;8.734;2023-07-08T06:06:42;6.87;;;5.57;;
11447;SDS011;43755;49.736;8.734;2023-07-08T06:08:44;6.13;;;5.30;;
11447;SDS011;43755;49.736;8.734;2023-07-08T06:10:46;5.63;;;5.20;;
11447;SDS011;43755;49.736;8.734;2023-07-08T06:12:47;5.80;;;5.30;;
11447;SDS011;43755;49.736;8.734;2023-07-08T06:14:50;6.10;;;5.50;;
11447;SDS011;43755;49.736;8.734;2023-07-08T06:16:52;6.13;;;5.53;;
11447;SDS011;43755;49.736;8.734;2023-07-08T06:18:55;6.03;;;5.07;;
11447;SDS011;43755;49.736;8.734;2023-07-08T06:20:57;7.53;;;5.20;;
11447;SDS011;43755;49.736;8.734;2023-07-08T06:22:59;6.37;;;5.77;;
11447;SDS011;43755;49.736;8.734;2023-07-08T06:25:00;6.70;;;6.00;;
11447;SDS011;43755;49.736;8.734;2023-07-08T06:27:02;5.50;;;4.90;;
11447;SDS011;43755;49.736;8.734;2023-07-08T06:29:04;7.40;;;5.47;;
11447;SDS011;43755;49.736;8.734;2023-07-08T06:31:07;6.60;;;5.23;;
11447;SDS011;43755;49.736;8.734;2023-07-08T06:33:08;6.53;;;5.70;;
11447;SDS011;43755;49.736;8.734;2023-07-08T06:35:11;6.27;;;5.67;;
11447;SDS011;43755;49.736;8.734;2023-07-08T06:37:12;6.70;;;5.83;;
11447;SDS011;43755;49.736;8.734;2023-07-08T06:39:14;6.80;;;5.60;;
11447;SDS011;43755;49.736;8.734;2023-07-08T06:41:15;6.07;;;5.57;;
11447;SDS011;43755;49.736;8.734;2023-07-08T06:43:16;6.60;;;6.00;;
11447;SDS011;43755;49.736;8.734;2023-07-08T06:45:18;7.63;;;6.07;;
11447;SDS011;43755;49.736;8.734;2023-07-08T06:47:20;5.93;;;5.40;;
11447;SDS011;43755;49.736;8.734;2023-07-08T06:49:22;6.43;;;5.90;;
11447;SDS011;43755;49.736;8.734;2023-07-08T06:51:24;6.30;;;5.70;;
11447;SDS011;43755;49.736;8.734;2023-07-08T06:53:25;6.70;;;6.00;;
11447;SDS011;43755;49.736;8.734;2023-07-08T06:55:26;6.20;;;5.63;;
11447;SDS011;43755;49.736;8.734;2023-07-08T06:57:30;6.87;;;6.17;;
11447;SDS011;43755;49.736;8.734;2023-07-08T06:59:31;6.47;;;5.77;;
11447;SDS011;43755;49.736;8.734;2023-07-08T07:01:32;7.93;;;6.07;;
11447;SDS011;43755;49.736;8.734;2023-07-08T07:03:36;7.83;;;6.40;;
11447;SDS011;43755;49.736;8.734;2023-07-08T07:05:37;6.83;;;6.20;;
11447;SDS011;43755;49.736;8.734;2023-07-08T07:07:39;8.13;;;6.47;;
11447;SDS011;43755;49.736;8.734;2023-07-08T07:09:39;6.60;;;6.00;;
11447;SDS011;43755;49.736;8.734;2023-07-08T07:11:41;6.30;;;5.70;;
11447;SDS011;43755;49.736;8.734;2023-07-08T07:13:42;7.80;;;5.97;;
11447;SDS011;43755;49.736;8.734;2023-07-08T07:15:43;6.67;;;6.03;;
11447;SDS011;43755;49.736;8.734;2023-07-08T07:17:45;7.17;;;6.10;;
11447;SDS011;43755;49.736;8.734;2023-07-08T07:19:47;6.63;;;5.87;;
11447;SDS011;43755;49.736;8.734;2023-07-08T07:21:49;6.67;;;6.07;;
11447;SDS011;43755;49.736;8.734;2023-07-08T07:23:51;9.27;;;5.43;;
11447;SDS011;43755;49.736;8.734;2023-07-08T07:25:52;6.97;;;6.10;;
11447;SDS011;43755;49.736;8.734;2023-07-08T07:27:54;7.00;;;6.30;;
11447;SDS011;43755;49.736;8.734;2023-07-08T07:29:55;8.10;;;5.73;;
11447;SDS011;43755;49.736;8.734;2023-07-08T07:31:59;7.13;;;5.97;;
11447;SDS011;43755;49.736;8.734;2023-07-08T07:34:00;6.87;;;5.83;;
11447;SDS011;43755;49.736;8.734;2023-07-08T07:36:04;6.40;;;5.80;;
11447;SDS011;43755;49.736;8.734;2023-07-08T07:38:05;6.40;;;5.80;;
11447;SDS011;43755;49.736;8.734;2023-07-08T07:40:07;7.03;;;6.37;;
11447;SDS011;43755;49.736;8.734;2023-07-08T07:42:12;6.43;;;5.83;;
11447;SDS011;43755;49.736;8.734;2023-07-08T07:44:15;6.73;;;6.07;;
11447;SDS011;43755;49.736;8.734;2023-07-08T07:46:16;6.03;;;5.53;;
11447;SDS011;43755;49.736;8.734;2023-07-08T07:48:18;6.00;;;5.40;;
11447;SDS011;43755;49.736;8.734;2023-07-08T07:50:19;6.23;;;5.63;;
11447;SDS011;43755;49.736;8.734;2023-07-08T07:52:22;7.20;;;6.50;;
11447;SDS011;43755;49.736;8.734;2023-07-08T07:54:24;6.90;;;6.07;;
11447;SDS011;43755;49.736;8.734;2023-07-08T07:56:26;8.13;;;6.20;;
11447;SDS011;43755;49.736;8.734;2023-07-08T07:58:27;6.77;;;6.17;;
11447;SDS011;43755;49.736;8.734;2023-07-08T08:00:29;6.50;;;5.90;;
11447;SDS011;43755;49.736;8.734;2023-07-08T08:02:30;6.40;;;5.67;;
11447;SDS011;43755;49.736;8.734;2023-07-08T08:04:32;8.47;;;6.10;;
11447;SDS011;43755;49.736;8.734;2023-07-08T08:06:33;6.27;;;5.70;;
11447;SDS011;43755;49.736;8.734;2023-07-08T08:08:36;7.20;;;6.60;;
11447;SDS011;43755;49.736;8.734;2023-07-08T08:10:37;7.63;;;6.60;;
11447;SDS011;43755;49.736;8.734;2023-07-08T08:12:39;6.90;;;6.27;;
11447;SDS011;43755;49.736;8.734;2023-07-08T08:14:40;7.23;;;6.40;;
11447;SDS011;43755;49.736;8.734;2023-07-08T08:16:42;7.60;;;6.77;;
11447;SDS011;43755;49.736;8.734;2023-07-08T08:18:43;7.47;;;6.77;;
11447;SDS011;43755;49.736;8.734;2023-07-08T08:20:44;7.83;;;6.67;;
11447;SDS011;43755;49.736;8.734;2023-07-08T08:22:46;7.40;;;6.53;;
11447;SDS011;43755;49.736;8.734;2023-07-08T08:24:49;9.73;;;6.33;;
11447;SDS011;43755;49.736;8.734;2023-07-08T08:26:50;7.20;;;6.17;;
11447;SDS011;43755;49.736;8.734;2023-07-08T08:28:51;8.23;;;6.50;;
11447;SDS011;43755;49.736;8.734;2023-07-08T08:30:53;7.23;;;6.50;;
11447;SDS011;43755;49.736;8.734;2023-07-08T08:32:55;9.47;;;5.87;;
11447;SDS011;43755;49.736;8.734;2023-07-08T08:34:56;6.23;;;5.00;;
11447;SDS011;43755;49.736;8.734;2023-07-08T08:36:57;5.17;;;4.40;;
11447;SDS011;43755;49.736;8.734;2023-07-08T08:38:59;7.63;;;4.57;;
11447;SDS011;43755;49.736;8.734;2023-07-08T08:41:04;7.63;;;4.83;;
11447;SDS011;43755;49.736;8.734;2023-07-08T08:43:06;5.53;;;4.30;;
11447;SDS011;43755;49.736;8.734;2023-07-08T08:45:13;6.30;;;4.40;;
11447;SDS011;43755;49.736;8.734;2023-07-08T08:47:20;6.50;;;4.80;;
11447;SDS011;43755;49.736;8.734;2023-07-08T08:49:40;4.80;;;4.30;;
11447;SDS011;43755;49.736;8.734;2023-07-08T08:51:45;6.93;;;5.40;;
11447;SDS011;43755;49.736;8.734;2023-07-08T08:53:47;8.03;;;4.93;;
11447;SDS011;43755;49.736;8.734;2023-07-08T08:55:50;5.70;;;4.80;;
11447;SDS011;43755;49.736;8.734;2023-07-08T08:57:59;6.27;;;4.77;;
11447;SDS011;43755;49.736;8.734;2023-07-08T09:00:07;5.37;;;4.60;;
11447;SDS011;43755;49.736;8.734;2023-07-08T09:02:27;6.63;;;5.10;;
11447;SDS011;43755;49.736;8.734;2023-07-08T09:04:34;9.10;;;4.90;;
11447;SDS011;43755;49.736;8.734;2023-07-08T09:06:37;7.33;;;5.50;;
11447;SDS011;43755;49.736;8.734;2023-07-08T09:08:41;5.40;;;4.77;;
11447;SDS011;43755;49.736;8.734;2023-07-08T09:10:44;7.80;;;5.00;;
11447;SDS011;43755;49.736;8.734;2023-07-08T09:12:50;5.60;;;4.67;;
11447;SDS011;43755;49.736;8.734;2023-07-08T09:14:55;7.70;;;4.93;;
11447;SDS011;43755;49.736;8.734;2023-07-08T09:16:58;5.30;;;4.73;;
11447;SDS011;43755;49.736;8.734;2023-07-08T09:19:15;8.27;;;4.93;;
11447;SDS011;43755;49.736;8.734;2023-07-08T09:21:24;5.37;;;4.43;;
11447;SDS011;43755;49.736;8.734;2023-07-08T09:23:30;6.13;;;4.63;;
11447;SDS011;43755;49.736;8.734;2023-07-08T09:25:37;7.20;;;4.90;;
11447;SDS011;43755;49.736;8.734;2023-07-08T09:27:42;4.90;;;4.40;;
11447;SDS011;43755;49.736;8.734;2023-07-08T09:29:44;6.50;;;4.70;;
11447;SDS011;43755;49.736;8.734;2023-07-08T09:31:46;8.47;;;4.63;;
11447;SDS011;43755;49.736;8.734;2023-07-08T09:33:50;6.93;;;4.60;;
11447;SDS011;43755;49.736;8.734;2023-07-08T09:35:51;6.20;;;4.50;;
11447;SDS011;43755;49.736;8.734;2023-07-08T09:37:52;5.00;;;4.50;;
11447;SDS011;43755;49.736;8.734;2023-07-08T09:39:55;6.03;;;4.80;;
11447;SDS011;43755;49.736;8.734;2023-07-08T09:41:58;5.30;;;4.53;;
11447;SDS011;43755;49.736;8.734;2023-07-08T09:44:16;4.60;;;4.20;;
11447;SDS011;43755;49.736;8.734;2023-07-08T09:46:25;4.23;;;3.83;;
11447;SDS011;43755;49.736;8.734;2023-07-08T09:48:29;5.50;;;4.07;;
11447;SDS011;43755;49.736;8.734;2023-07-08T09:50:33;7.23;;;4.43;;
11447;SDS011;43755;49.736;8.734;2023-07-08T09:52:36;9.63;;;4.80;;
11447;SDS011;43755;49.736;8.734;2023-07-08T09:54:39;6.47;;;4.90;;
11447;SDS011;43755;49.736;8.734;2023-07-08T09:56:43;3.80;;;3.40;;
11447;SDS011;43755;49.736;8.734;2023-07-08T09:58:48;8.23;;;4.23;;
11447;SDS011;43755;49.736;8.734;2023-07-08T10:00:51;4.80;;;3.80;;
11447;SDS011;43755;49.736;8.734;2023-07-08T10:02:56;4.43;;;3.80;;
11447;SDS011;43755;49.736;8.734;2023-07-08T10:05:01;8.90;;;4.27;;
11447;SDS011;43755;49.736;8.734;2023-07-08T10:07:12;5.33;;;3.83;;
11447;SDS011;43755;49.736;8.734;2023-07-08T10:09:18;4.60;;;3.87;;
11447;SDS011;43755;49.736;8.734;2023-07-08T10:11:23;5.63;;;3.73;;
11447;SDS011;43755;49.736;8.734;2023-07-08T10:13:28;5.33;;;3.77;;
11447;SDS011;43755;49.736;8.734;2023-07-08T10:15:39;4.30;;;3.80;;
11447;SDS011;43755;49.736;8.734;2023-07-08T10:17:45;4.17;;;3.60;;
11447;SDS011;43755;49.736;8.734;2023-07-08T10:19:45;4.57;;;3.90;;
11447;SDS011;43755;49.736;8.734;2023-07-08T10:21:51;4.30;;;3.73;;
11447;SDS011;43755;49.736;8.734;2023-07-08T10:26:25;5.80;;;4.33;;
11447;SDS011;43755;49.736;8.734;2023-07-08T10:28:31;4.70;;;4.27;;
11447;SDS011;43755;49.736;8.734;2023-07-08T10:30:41;5.00;;;3.47;;
11447;SDS011;43755;49.736;8.734;2023-07-08T10:35:19;5.10;;;4.10;;
11447;SDS011;43755;49.736;8.734;2023-07-08T10:37:29;6.50;;;3.80;;
11447;SDS011;43755;49.736;8.734;2023-07-08T10:39:47;3.87;;;3.47;;
11447;SDS011;43755;49.736;8.734;2023-07-08T10:41:58;5.07;;;3.67;;
11447;SDS011;43755;49.736;8.734;2023-07-08T10:44:12;5.67;;;3.70;;
11447;SDS011;43755;49.736;8.734;2023-07-08T10:46:22;4.20;;;3.80;;
11447;SDS011;43755;49.736;8.734;2023-07-08T10:48:44;5.17;;;3.90;;
11447;SDS011;43755;49.736;8.734;2023-07-08T10:50:59;4.40;;;4.00;;
11447;SDS011;43755;49.736;8.734;2023-07-08T10:53:18;5.67;;;3.90;;
11447;SDS011;43755;49.736;8.734;2023-07-08T10:55:32;4.83;;;3.73;;
11447;SDS011;43755;49.736;8.734;2023-07-08T10:57:48;5.30;;;4.10;;
11447;SDS011;43755;49.736;8.734;2023-07-08T11:00:16;5.63;;;4.10;;
11447;SDS011;43755;49.736;8.734;2023-07-08T11:02:52;4.67;;;3.97;;
11447;SDS011;43755;49.736;8.734;2023-07-08T11:05:10;5.77;;;3.87;;
11447;SDS011;43755;49.736;8.734;2023-07-08T11:07:22;5.23;;;4.10;;
11447;SDS011;43755;49.736;8.734;2023-07-08T11:09:35;4.47;;;4.07;;
11447;SDS011;43755;49.736;8.734;2023-07-08T11:11:50;6.20;;;4.10;;
11447;SDS011;43755;49.736;8.734;2023-07-08T11:13:57;5.47;;;4.33;;
11447;SDS011;43755;49.736;8.734;2023-07-08T11:16:04;4.03;;;3.70;;
11447;SDS011;43755;49.736;8.734;2023-07-08T11:18:11;5.00;;;4.10;;
11447;SDS011;43755;49.736;8.734;2023-07-08T11:20:17;4.60;;;3.97;;
11447;SDS011;43755;49.736;8.734;2023-07-08T11:22:22;4.90;;;4.10;;
11447;SDS011;43755;49.736;8.734;2023-07-08T11:24:26;7.03;;;3.90;;
11447;SDS011;43755;49.736;8.734;2023-07-08T11:26:36;6.67;;;4.07;;
11447;SDS011;43755;49.736;8.734;2023-07-08T11:28:43;6.33;;;4.40;;
11447;SDS011;43755;49.736;8.734;2023-07-08T11:30:44;6.53;;;4.20;;
11447;SDS011;43755;49.736;8.734;2023-07-08T11:32:49;4.40;;;4.00;;
11447;SDS011;43755;49.736;8.734;2023-07-08T11:34:56;6.77;;;4.20;;
11447;SDS011;43755;49.736;8.734;2023-07-08T11:37:00;7.67;;;4.27;;
11447;SDS011;43755;49.736;8.734;2023-07-08T11:39:02;5.00;;;4.27;;
11447;SDS011;43755;49.736;8.734;2023-07-08T11:41:26;6.50;;;4.50;;
11447;SDS011;43755;49.736;8.734;2023-07-08T11:43:33;9.07;;;5.03;;
11447;SDS011;43755;49.736;8.734;2023-07-08T11:45:37;5.93;;;4.40;;
11447;SDS011;43755;49.736;8.734;2023-07-08T11:47:44;6.83;;;4.80;;
11447;SDS011;43755;49.736;8.734;2023-07-08T11:49:47;6.17;;;4.40;;
11447;SDS011;43755;49.736;8.734;2023-07-08T11:51:50;6.00;;;4.30;;
11447;SDS011;43755;49.736;8.734;2023-07-08T11:53:58;4.67;;;4.30;;
11447;SDS011;43755;49.736;8.734;2023-07-08T11:56:02;4.43;;;4.03;;
11447;SDS011;43755;49.736;8.734;2023-07-08T11:58:08;8.17;;;4.57;;
11447;SDS011;43755;49.736;8.734;2023-07-08T12:00:23;6.90;;;4.40;;
11447;SDS011;43755;49.736;8.734;2023-07-08T12:02:26;6.00;;;4.10;;
11447;SDS011;43755;49.736;8.734;2023-07-08T12:04:32;4.23;;;3.83;;
11447;SDS011;43755;49.736;8.734;2023-07-08T12:06:42;5.67;;;4.03;;
11447;SDS011;43755;49.736;8.734;2023-07-08T12:08:47;5.17;;;3.97;;
11447;SDS011;43755;49.736;8.734;2023-07-08T12:10:49;7.33;;;4.00;;
11447;SDS011;43755;49.736;8.734;2023-07-08T12:12:52;4.67;;;3.87;;
11447;SDS011;43755;49.736;8.734;2023-07-08T12:14:58;5.43;;;4.20;;
11447;SDS011;43755;49.736;8.734;2023-07-08T12:17:08;5.73;;;4.60;;
11447;SDS011;43755;49.736;8.734;2023-07-08T12:19:13;4.57;;;4.17;;
11447;SDS011;43755;49.736;8.734;2023-07-08T12:21:18;5.07;;;4.03;;
11447;SDS011;43755;49.736;8.734;2023-07-08T12:23:24;4.40;;;4.00;;
11447;SDS011;43755;49.736;8.734;2023-07-08T12:25:28;4.70;;;4.20;;
11447;SDS011;43755;49.736;8.734;2023-07-08T12:27:31;4.50;;;4.10;;
11447;SDS011;43755;49.736;8.734;2023-07-08T12:29:33;6.03;;;4.30;;
11447;SDS011;43755;49.736;8.734;2023-07-08T12:31:34;5.50;;;4.50;;
11447;SDS011;43755;49.736;8.734;2023-07-08T12:33:37;5.30;;;4.10;;